createdAt,value
2018-06-08T00:00:53.735Z,20.95
2018-06-08T00:01:53.661Z,20.95
2018-06-08T00:02:53.128Z,20.95
2018-06-08T00:03:53.621Z,20.95
2018-06-08T00:04:53.491Z,20.95
2018-06-08T00:05:54.139Z,20.90
2018-06-08T00:06:53.671Z,20.88
2018-06-08T00:07:53.333Z,20.85
2018-06-08T00:08:54.159Z,20.85
2018-06-08T00:09:53.891Z,20.85
2018-06-08T00:10:53.458Z,20.84
2018-06-08T00:12:14.591Z,20.82
2018-06-08T00:13:36.921Z,20.80
2018-06-08T00:14:37.574Z,20.78
2018-06-08T00:15:37.240Z,20.75
2018-06-08T00:16:37.112Z,20.77
2018-06-08T00:17:37.628Z,20.78
2018-06-08T00:18:37.469Z,20.77
2018-06-08T00:19:37.991Z,20.77
2018-06-08T00:20:37.554Z,20.75
2018-06-08T00:21:36.979Z,20.75
2018-06-08T00:22:37.635Z,20.72
2018-06-08T00:23:37.505Z,20.69
2018-06-08T00:24:36.988Z,20.66
2018-06-08T00:25:59.264Z,20.60
2018-06-08T00:27:01.211Z,20.56
2018-06-08T00:28:23.061Z,20.51
2018-06-08T00:29:23.611Z,20.44
2018-06-08T00:30:23.316Z,20.44
2018-06-08T00:31:27.973Z,20.44
2018-06-08T00:32:45.138Z,20.40
2018-06-08T00:33:45.330Z,20.41
2018-06-08T00:34:44.819Z,20.47
2018-06-08T00:35:45.703Z,20.47
2018-06-08T00:36:45.540Z,20.47
2018-06-08T00:37:45.237Z,20.48
2018-06-08T00:38:45.859Z,20.47
2018-06-08T00:40:06.721Z,20.47
2018-06-08T00:41:07.332Z,20.48
2018-06-08T00:42:06.732Z,20.47
2018-06-08T00:43:07.011Z,20.47
2018-06-08T00:44:07.392Z,20.43
2018-06-08T00:45:07.236Z,20.43
2018-06-08T00:46:06.818Z,20.41
2018-06-08T00:47:07.241Z,20.41
2018-06-08T00:48:06.570Z,20.41
2018-06-08T00:49:06.967Z,20.40
2018-06-08T00:50:06.668Z,20.40
2018-06-08T00:51:07.657Z,20.39
2018-06-08T00:52:07.396Z,20.40
2018-06-08T00:53:06.779Z,20.40
2018-06-08T00:54:07.234Z,20.39
2018-06-08T00:55:06.751Z,20.37
2018-06-08T00:56:28.928Z,20.36
2018-06-08T00:57:29.352Z,20.34
2018-06-08T00:58:28.946Z,20.36
2018-06-08T00:59:29.542Z,20.36
2018-06-08T01:00:30.355Z,20.32
2018-06-08T01:01:29.118Z,20.29
2018-06-08T01:02:31.070Z,20.29
2018-06-08T01:03:29.813Z,20.28
2018-06-08T01:04:51.086Z,20.26
2018-06-08T01:05:51.547Z,20.25
2018-06-08T01:06:51.164Z,20.24
2018-06-08T01:08:12.226Z,20.24
2018-06-08T01:09:13.059Z,20.22
2018-06-08T01:10:34.231Z,20.22
2018-06-08T01:11:34.805Z,20.22
2018-06-08T01:12:58.255Z,20.22
2018-06-08T01:14:10.110Z,20.21
2018-06-08T01:14:58.497Z,20.21
2018-06-08T01:15:58.943Z,20.21
2018-06-08T01:16:58.297Z,20.21
2018-06-08T01:17:58.676Z,20.22
2018-06-08T01:19:21.480Z,20.21
2018-06-08T01:20:22.316Z,20.21
2018-06-08T01:21:22.047Z,20.21
2018-06-08T01:22:21.851Z,20.22
2018-06-08T01:23:21.796Z,20.22
2018-06-08T01:24:21.159Z,20.22
2018-06-08T01:25:21.609Z,20.21
2018-06-08T01:26:21.207Z,20.19
2018-06-08T01:27:21.991Z,20.19
2018-06-08T01:28:21.861Z,20.18
2018-06-08T01:29:21.487Z,20.14
2018-06-08T01:30:22.177Z,20.14
2018-06-08T01:31:21.643Z,20.16
2018-06-08T01:32:21.291Z,20.18
2018-06-08T01:33:21.769Z,20.16
2018-06-08T01:34:21.511Z,20.13
2018-06-08T01:35:22.148Z,20.14
2018-06-08T01:36:21.707Z,20.11
2018-06-08T01:37:21.551Z,20.10
2018-06-08T01:38:42.772Z,20.10
2018-06-08T01:39:43.233Z,20.10
2018-06-08T01:40:42.821Z,20.09
2018-06-08T01:41:43.621Z,20.06
2018-06-08T01:42:43.213Z,20.03
2018-06-08T01:43:42.762Z,19.99
2018-06-08T01:44:43.584Z,20.03
2018-06-08T01:45:43.206Z,20.03
2018-06-08T01:46:42.617Z,20.02
2018-06-08T01:47:43.024Z,20.02
2018-06-08T01:48:42.917Z,19.99
2018-06-08T01:49:44.181Z,19.95
2018-06-08T01:50:42.886Z,19.94
2018-06-08T01:51:43.255Z,19.91
2018-06-08T01:52:43.844Z,19.88
2018-06-08T01:53:43.586Z,19.89
2018-06-08T01:54:43.292Z,19.86
2018-06-08T01:55:42.887Z,19.84
2018-06-08T01:56:42.836Z,19.86
2018-06-08T01:57:43.595Z,19.89
2018-06-08T01:58:43.428Z,19.88
2018-06-08T01:59:42.972Z,19.86
2018-06-08T02:00:43.406Z,19.86
2018-06-08T02:01:43.311Z,19.86
2018-06-08T02:02:43.104Z,19.85
2018-06-08T02:03:42.553Z,19.86
2018-06-08T02:04:42.952Z,19.79
2018-06-08T02:05:42.993Z,19.79
2018-06-08T02:06:42.493Z,19.77
2018-06-08T02:07:42.675Z,19.77
2018-06-08T02:08:43.066Z,19.73
2018-06-08T02:09:42.593Z,19.70
2018-06-08T02:10:43.030Z,19.71
2018-06-08T02:11:42.460Z,19.67
2018-06-08T02:12:43.025Z,19.63
2018-06-08T02:13:42.606Z,19.62
2018-06-08T02:14:43.465Z,19.62
2018-06-08T02:15:43.031Z,19.62
2018-06-08T02:16:42.833Z,19.59
2018-06-08T02:17:43.372Z,19.58
2018-06-08T02:18:43.058Z,19.58
2018-06-08T02:19:42.713Z,19.52
2018-06-08T02:21:04.823Z,19.40
2018-06-08T02:22:05.563Z,19.27
2018-06-08T02:23:05.081Z,19.15
2018-06-08T02:24:05.680Z,19.04
2018-06-08T02:25:05.188Z,18.99
2018-06-08T02:26:05.739Z,18.98
2018-06-08T02:27:05.106Z,19.04
2018-06-08T02:28:05.948Z,19.09
2018-06-08T02:29:05.389Z,19.09
2018-06-08T02:30:05.043Z,19.11
2018-06-08T02:31:06.002Z,19.14
2018-06-08T02:32:05.629Z,19.14
2018-06-08T02:33:05.450Z,19.14
2018-06-08T02:34:07.144Z,19.16
2018-06-08T02:35:06.057Z,19.15
2018-06-08T02:36:26.903Z,19.15
2018-06-08T02:37:27.815Z,19.16
2018-06-08T02:38:27.652Z,19.16
2018-06-08T02:39:28.341Z,19.15
2018-06-08T02:40:27.049Z,19.16
2018-06-08T02:41:27.533Z,19.16
2018-06-08T02:42:27.086Z,19.21
2018-06-08T02:43:27.950Z,19.27
2018-06-08T02:44:27.718Z,19.31
2018-06-08T02:45:48.439Z,19.37
2018-06-08T02:46:49.252Z,19.39
2018-06-08T02:47:48.696Z,19.40
2018-06-08T02:48:49.523Z,19.44
2018-06-08T02:49:49.187Z,19.45
2018-06-08T02:51:32.047Z,19.52
2018-06-08T02:52:53.034Z,19.52
2018-06-08T02:53:53.901Z,19.52
2018-06-08T02:55:15.218Z,19.52
2018-06-08T02:56:15.538Z,19.54
2018-06-08T02:57:37.747Z,19.49
2018-06-08T02:58:38.523Z,19.45
2018-06-08T02:59:38.072Z,19.40
2018-06-08T03:00:38.761Z,19.40
2018-06-08T03:01:38.551Z,19.40
2018-06-08T03:02:38.318Z,19.41
2018-06-08T03:03:37.765Z,19.34
2018-06-08T03:04:38.425Z,19.31
2018-06-08T03:05:38.087Z,19.29
2018-06-08T03:06:38.779Z,19.27
2018-06-08T03:07:38.810Z,19.24
2018-06-08T03:09:00.195Z,19.19
2018-06-08T03:10:21.806Z,19.16
2018-06-08T03:11:22.601Z,19.12
2018-06-08T03:12:22.210Z,19.09
2018-06-08T03:13:22.851Z,19.09
2018-06-08T03:14:22.378Z,19.09
2018-06-08T03:15:43.272Z,19.08
2018-06-08T03:16:43.836Z,19.04
2018-06-08T03:17:43.564Z,18.99
2018-06-08T03:18:44.388Z,18.99
2018-06-08T03:19:43.921Z,18.98
2018-06-08T03:20:43.317Z,18.96
2018-06-08T03:21:43.840Z,18.98
2018-06-08T03:22:43.191Z,18.98
2018-06-08T03:24:07.902Z,18.99
2018-06-08T03:25:08.534Z,19.02
2018-06-08T03:26:08.077Z,18.99
2018-06-08T03:27:08.849Z,18.96
2018-06-08T03:28:08.488Z,18.95
2018-06-08T03:29:08.168Z,18.88
2018-06-08T03:30:30.221Z,18.83
2018-06-08T03:31:31.114Z,18.81
2018-06-08T03:32:31.672Z,18.81
2018-06-08T03:33:31.621Z,18.81
2018-06-08T03:34:31.440Z,18.81
2018-06-08T03:35:31.600Z,18.83
2018-06-08T03:36:30.344Z,18.84
2018-06-08T03:37:31.851Z,18.84
2018-06-08T03:38:53.190Z,18.84
2018-06-08T03:39:52.842Z,18.89
2018-06-08T03:40:53.407Z,18.89
2018-06-08T03:41:53.116Z,18.90
2018-06-08T03:42:53.481Z,18.90
2018-06-08T03:43:53.072Z,18.95
2018-06-08T03:45:15.483Z,19.00
2018-06-08T03:46:15.205Z,19.07
2018-06-08T03:47:16.000Z,19.02
2018-06-08T03:48:15.728Z,18.99
2018-06-08T03:49:15.416Z,18.98
2018-06-08T03:50:15.909Z,18.98
2018-06-08T03:51:37.235Z,18.99
2018-06-08T03:52:38.217Z,19.00
2018-06-08T03:53:38.270Z,18.99
2018-06-08T03:54:38.070Z,19.00
2018-06-08T03:55:59.463Z,18.98
2018-06-08T03:57:22.724Z,18.98
2018-06-08T03:58:23.314Z,19.00
2018-06-08T03:59:22.787Z,19.00
2018-06-08T04:00:23.881Z,19.02
2018-06-08T04:01:23.838Z,19.04
2018-06-08T04:02:23.511Z,19.09
2018-06-08T04:03:23.231Z,19.15
2018-06-08T04:04:45.292Z,19.15
2018-06-08T04:06:07.441Z,19.15
2018-06-08T04:07:07.903Z,19.14
2018-06-08T04:08:07.958Z,19.14
2018-06-08T04:09:07.594Z,19.14
2018-06-08T04:10:28.676Z,19.16
2018-06-08T04:11:29.448Z,19.16
2018-06-08T04:12:29.119Z,19.18
2018-06-08T04:13:29.117Z,19.21
2018-06-08T04:14:29.022Z,19.24
2018-06-08T04:15:50.498Z,19.27
2018-06-08T04:16:51.221Z,19.29
2018-06-08T04:17:50.992Z,19.31
2018-06-08T04:18:50.996Z,19.36
2018-06-08T04:19:50.465Z,19.44
2018-06-08T04:20:51.119Z,19.48
2018-06-08T04:22:12.848Z,19.54
2018-06-08T04:23:12.801Z,19.58
2018-06-08T04:24:13.659Z,19.63
2018-06-08T04:25:13.455Z,19.70
2018-06-08T04:26:34.455Z,19.82
2018-06-08T04:27:35.198Z,19.86
2018-06-08T04:28:35.100Z,19.86
2018-06-08T04:29:34.892Z,19.89
2018-06-08T04:30:34.816Z,19.94
2018-06-08T04:31:34.667Z,20.00
2018-06-08T04:32:36.008Z,20.07
2018-06-08T04:33:56.163Z,20.16
2018-06-08T04:34:56.765Z,20.22
2018-06-08T04:35:56.513Z,20.28
2018-06-08T04:36:56.127Z,20.36
2018-06-08T04:37:56.559Z,20.43
2018-06-08T04:38:56.660Z,20.50
2018-06-08T04:39:56.793Z,20.58
2018-06-08T04:40:56.969Z,20.65
2018-06-08T04:41:57.161Z,20.67
2018-06-08T04:42:56.899Z,20.69
2018-06-08T04:44:18.120Z,20.75
2018-06-08T04:45:18.793Z,20.82
2018-06-08T04:46:40.125Z,20.92
2018-06-08T04:47:41.156Z,21.00
2018-06-08T04:48:40.776Z,21.05
2018-06-08T04:49:41.205Z,21.15
2018-06-08T04:50:41.132Z,21.21
2018-06-08T04:51:41.044Z,21.27
2018-06-08T04:52:40.875Z,21.33
2018-06-08T04:53:42.139Z,21.36
2018-06-08T04:54:40.957Z,21.43
2018-06-08T04:55:40.778Z,21.46
2018-06-08T04:56:40.632Z,21.52
2018-06-08T04:57:40.409Z,21.57
2018-06-08T04:58:40.007Z,21.60
2018-06-08T04:59:41.136Z,21.67
2018-06-08T05:00:40.807Z,21.76
2018-06-08T05:02:23.942Z,21.79
2018-06-08T05:03:23.833Z,21.82
2018-06-08T05:04:24.877Z,21.87
2018-06-08T05:05:24.129Z,21.89
2018-06-08T05:06:47.148Z,21.96
2018-06-08T05:07:47.184Z,22.00
2018-06-08T05:09:31.281Z,22.15
2018-06-08T05:10:54.029Z,22.15
2018-06-08T05:11:53.635Z,22.22
2018-06-08T05:12:54.708Z,22.29
2018-06-08T05:13:54.763Z,22.35
2018-06-08T05:14:53.951Z,22.47
2018-06-08T05:15:53.965Z,22.54
2018-06-08T05:16:54.131Z,22.62
2018-06-08T05:17:53.906Z,22.68
2018-06-08T05:18:54.092Z,22.81
2018-06-08T05:19:53.971Z,22.90
2018-06-08T05:20:53.944Z,23.00
2018-06-08T05:21:54.075Z,23.09
2018-06-08T05:22:53.906Z,23.18
2018-06-08T05:23:53.666Z,23.25
2018-06-08T05:24:54.426Z,23.28
2018-06-08T05:25:54.852Z,23.37
2018-06-08T05:26:53.666Z,23.46
2018-06-08T05:27:54.796Z,23.54
2018-06-08T05:28:54.538Z,23.61
2018-06-08T05:30:16.005Z,23.76
2018-06-08T05:31:17.013Z,23.81
2018-06-08T05:32:17.891Z,23.88
2018-06-08T05:33:17.188Z,23.91
2018-06-08T05:34:17.365Z,23.92
2018-06-08T05:35:38.156Z,23.99
2018-06-08T05:36:39.120Z,24.02
2018-06-08T05:37:38.685Z,24.05
2018-06-08T05:38:38.823Z,24.14
2018-06-08T05:39:38.730Z,24.23
2018-06-08T05:41:00.612Z,24.28
2018-06-08T05:42:01.614Z,24.33
2018-06-08T05:43:00.731Z,24.43
2018-06-08T05:44:01.298Z,24.53
2018-06-08T05:45:00.921Z,24.63
2018-06-08T05:46:00.577Z,24.69
2018-06-08T05:47:00.616Z,24.74
2018-06-08T05:48:23.118Z,24.80
2018-06-08T05:49:23.369Z,24.81
2018-06-08T05:50:23.431Z,24.85
2018-06-08T05:51:23.406Z,24.91
2018-06-08T05:52:45.632Z,25.04
2018-06-08T05:53:46.753Z,25.10
2018-06-08T05:54:46.920Z,25.17
2018-06-08T05:55:46.584Z,25.26
2018-06-08T05:56:46.550Z,25.36
2018-06-08T05:57:46.720Z,25.38
2018-06-08T05:58:46.536Z,25.46
2018-06-08T06:00:29.737Z,25.58
2018-06-08T06:01:30.617Z,25.66
2018-06-08T06:02:30.798Z,25.75
2018-06-08T06:03:30.903Z,25.91
2018-06-08T06:04:30.603Z,25.99
2018-06-08T06:05:30.425Z,26.09
2018-06-08T06:06:30.272Z,26.23
2018-06-08T06:07:30.076Z,26.28
2018-06-08T06:08:29.896Z,26.22
2018-06-08T06:09:30.944Z,26.10
2018-06-08T06:10:52.010Z,26.05
2018-06-08T06:11:53.285Z,25.98
2018-06-08T06:13:14.037Z,25.95
2018-06-08T06:14:35.323Z,25.84
2018-06-08T06:15:36.375Z,25.77
2018-06-08T06:16:36.139Z,25.68
2018-06-08T06:17:35.788Z,25.72
2018-06-08T06:18:35.744Z,25.75
2018-06-08T06:19:35.479Z,25.83
2018-06-08T06:20:36.145Z,25.91
2018-06-08T06:22:19.590Z,26.28
2018-06-08T06:23:19.308Z,26.41
2018-06-08T06:24:20.363Z,26.43
2018-06-08T06:26:03.644Z,26.28
2018-06-08T06:27:15.088Z,26.28
2018-06-08T06:28:04.103Z,26.31
2018-06-08T06:29:03.790Z,26.36
2018-06-08T06:30:25.995Z,26.36
2018-06-08T06:31:28.544Z,26.36
2018-06-08T06:32:26.681Z,26.29
2018-06-08T06:33:48.548Z,26.40
2018-06-08T06:34:48.354Z,26.63
2018-06-08T06:35:48.454Z,26.84
2018-06-08T06:36:48.183Z,26.85
2018-06-08T06:37:49.258Z,26.78
2018-06-08T06:38:49.330Z,27.11
2018-06-08T06:40:10.128Z,27.64
2018-06-08T06:41:31.255Z,27.75
2018-06-08T06:42:33.045Z,27.64
2018-06-08T06:43:32.021Z,27.86
2018-06-08T06:44:31.993Z,28.12
2018-06-08T06:45:31.866Z,28.26
2018-06-08T06:46:31.515Z,28.41
2018-06-08T06:47:32.354Z,28.48
2018-06-08T06:48:53.712Z,28.70
2018-06-08T06:49:54.759Z,28.91
2018-06-08T06:50:54.459Z,29.01
2018-06-08T06:53:19.758Z,29.34
2018-06-08T06:54:20.289Z,29.51
2018-06-08T06:55:19.964Z,29.66
2018-06-08T06:56:20.758Z,29.90
2018-06-08T06:57:20.461Z,30.16
2018-06-08T06:58:20.717Z,30.44
2018-06-08T06:59:20.595Z,30.59
2018-06-08T07:00:20.368Z,30.66
2018-06-08T07:01:26.105Z,30.80
2018-06-08T07:02:20.851Z,30.97
2018-06-08T07:03:21.307Z,31.10
2018-06-08T07:04:20.530Z,31.22
2018-06-08T07:05:43.690Z,31.33
2018-06-08T07:06:45.198Z,31.43
2018-06-08T07:07:44.331Z,31.46
2018-06-08T07:08:44.066Z,31.47
2018-06-08T07:09:44.278Z,31.36
2018-06-08T07:11:08.040Z,31.06
2018-06-08T07:12:06.962Z,30.96
2018-06-08T07:13:05.722Z,30.81
2018-06-08T07:14:06.589Z,30.72
2018-06-08T07:15:07.041Z,30.73
2018-06-08T07:16:05.730Z,30.91
2018-06-08T07:17:06.655Z,30.99
2018-06-08T07:18:06.867Z,31.12
2018-06-08T07:19:06.043Z,31.31
2018-06-08T07:20:17.309Z,31.07
2018-06-08T07:21:27.837Z,30.75
2018-06-08T07:22:28.822Z,30.69
2018-06-08T07:23:50.481Z,30.57
2018-06-08T07:24:50.191Z,30.54
2018-06-08T07:25:50.124Z,30.75
2018-06-08T07:26:51.105Z,30.90
2018-06-08T07:27:50.973Z,31.05
2018-06-08T07:28:50.763Z,31.17
2018-06-08T07:31:16.970Z,31.37
2018-06-08T07:32:16.686Z,31.46
2018-06-08T07:33:17.586Z,31.49
2018-06-08T07:34:17.583Z,31.65
2018-06-08T07:35:17.488Z,31.89
2018-06-08T07:36:17.092Z,32.04
2018-06-08T07:37:16.793Z,32.30
2018-06-08T07:38:17.487Z,32.49
2018-06-08T07:39:40.820Z,32.60
2018-06-08T07:40:41.121Z,32.73
2018-06-08T07:42:02.296Z,32.95
2018-06-08T07:43:03.357Z,33.12
2018-06-08T07:44:02.186Z,33.28
2018-06-08T07:45:45.197Z,33.31
2018-06-08T07:46:47.744Z,33.30
2018-06-08T07:47:45.417Z,33.45
2018-06-08T07:48:45.983Z,33.69
2018-06-08T07:49:46.008Z,33.98
2018-06-08T07:50:45.884Z,34.20
2018-06-08T07:51:45.473Z,34.24
2018-06-08T07:52:45.258Z,34.30
2018-06-08T07:53:46.283Z,34.29
2018-06-08T07:55:08.696Z,34.35
2018-06-08T07:56:08.646Z,34.54
2018-06-08T07:57:08.516Z,34.66
2018-06-08T07:58:09.323Z,34.99
2018-06-08T07:59:07.963Z,35.14
2018-06-08T08:00:52.307Z,35.27
2018-06-08T08:01:53.073Z,35.39
2018-06-08T08:03:16.047Z,35.51
2018-06-08T08:04:36.797Z,35.42
2018-06-08T08:05:36.906Z,35.46
2018-06-08T08:06:39.135Z,35.36
2018-06-08T08:07:37.157Z,35.23
2018-06-08T08:08:37.235Z,34.92
2018-06-08T08:09:37.162Z,34.92
2018-06-08T08:10:36.779Z,34.89
2018-06-08T08:11:36.626Z,34.95
2018-06-08T08:12:37.497Z,35.04
2018-06-08T08:13:37.159Z,35.18
2018-06-08T08:14:36.862Z,35.19
2018-06-08T08:15:36.709Z,35.12
2018-06-08T08:16:36.652Z,35.24
2018-06-08T08:17:37.388Z,35.39
2018-06-08T08:18:37.678Z,35.64
2018-06-08T08:19:37.819Z,35.67
2018-06-08T08:20:36.594Z,35.49
2018-06-08T08:21:37.555Z,35.08
2018-06-08T08:22:37.486Z,34.99
2018-06-08T08:23:37.385Z,34.97
2018-06-08T08:24:37.426Z,35.05
2018-06-08T08:25:37.475Z,35.11
2018-06-08T08:26:59.063Z,35.27
2018-06-08T08:27:58.997Z,35.17
2018-06-08T08:29:21.542Z,35.11
2018-06-08T08:30:22.509Z,34.89
2018-06-08T08:31:22.437Z,34.70
2018-06-08T08:32:23.433Z,34.73
2018-06-08T08:33:22.547Z,34.54
2018-06-08T08:34:29.277Z,34.48
2018-06-08T08:35:22.171Z,34.51
2018-06-08T08:36:22.091Z,34.32
2018-06-08T08:37:22.207Z,34.30
2018-06-08T08:38:23.286Z,34.40
2018-06-08T08:39:24.811Z,34.64
2018-06-08T08:40:23.835Z,34.77
2018-06-08T08:41:22.604Z,34.96
2018-06-08T08:42:23.588Z,35.19
2018-06-08T08:43:22.519Z,35.53
2018-06-08T08:44:22.350Z,35.73
2018-06-08T08:45:22.322Z,35.80
2018-06-08T08:46:22.845Z,35.63
2018-06-08T08:47:44.228Z,35.63
2018-06-08T08:48:44.720Z,35.61
2018-06-08T08:49:45.215Z,35.79
2018-06-08T08:50:44.835Z,35.92
2018-06-08T08:51:45.081Z,35.66
2018-06-08T08:52:44.651Z,35.42
2018-06-08T08:53:44.559Z,35.42
2018-06-08T08:54:44.064Z,35.42
2018-06-08T08:55:44.781Z,35.58
2018-06-08T08:56:44.624Z,35.52
2018-06-08T08:57:44.447Z,35.48
2018-06-08T08:58:45.084Z,35.60
2018-06-08T08:59:44.781Z,35.67
2018-06-08T09:00:44.656Z,35.64
2018-06-08T09:01:44.626Z,35.44
2018-06-08T09:02:44.255Z,35.14
2018-06-08T09:03:45.227Z,34.74
2018-06-08T09:04:44.897Z,34.50
2018-06-08T09:05:44.713Z,34.25
2018-06-08T09:06:44.652Z,34.24
2018-06-08T09:07:44.506Z,33.96
2018-06-08T09:08:45.118Z,33.95
2018-06-08T09:09:45.233Z,34.08
2018-06-08T09:10:44.898Z,34.30
2018-06-08T09:11:44.583Z,34.48
2018-06-08T09:12:44.474Z,34.45
2018-06-08T09:13:44.357Z,34.48
2018-06-08T09:14:45.042Z,34.67
2018-06-08T09:15:44.569Z,34.83
2018-06-08T09:16:44.547Z,34.93
2018-06-08T09:17:44.151Z,35.17
2018-06-08T09:18:44.947Z,35.63
2018-06-08T09:19:44.748Z,36.01
2018-06-08T09:20:44.790Z,35.76
2018-06-08T09:22:28.324Z,35.95
2018-06-08T09:23:30.581Z,36.25
2018-06-08T09:24:28.583Z,36.45
2018-06-08T09:25:28.196Z,36.55
2018-06-08T09:26:30.251Z,36.55
2018-06-08T09:27:29.266Z,36.49
2018-06-08T09:28:28.935Z,36.16
2018-06-08T09:29:28.754Z,35.83
2018-06-08T09:30:28.482Z,35.42
2018-06-08T09:31:49.794Z,35.23
2018-06-08T09:32:50.262Z,35.07
2018-06-08T09:33:49.988Z,34.78
2018-06-08T09:34:49.768Z,34.57
2018-06-08T09:36:11.932Z,34.40
2018-06-08T09:37:12.841Z,34.40
2018-06-08T09:38:13.493Z,34.42
2018-06-08T09:39:12.277Z,34.51
2018-06-08T09:40:34.105Z,34.55
2018-06-08T09:41:34.730Z,34.61
2018-06-08T09:42:34.446Z,34.70
2018-06-08T09:43:35.118Z,34.71
2018-06-08T09:44:34.821Z,34.70
2018-06-08T09:46:39.134Z,34.48
2018-06-08T09:47:41.087Z,34.42
2018-06-08T09:48:39.951Z,34.14
2018-06-08T09:50:01.044Z,33.95
2018-06-08T09:51:01.627Z,33.87
2018-06-08T09:52:02.530Z,33.95
2018-06-08T09:53:22.608Z,34.42
2018-06-08T09:54:46.280Z,35.00
2018-06-08T09:55:45.988Z,34.96
2018-06-08T09:56:46.920Z,35.17
2018-06-08T09:57:46.639Z,35.29
2018-06-08T09:58:47.347Z,35.24
2018-06-08T09:59:46.196Z,35.44
2018-06-08T10:00:46.940Z,35.68
2018-06-08T10:01:46.543Z,35.93
2018-06-08T10:02:46.160Z,36.02
2018-06-08T10:04:08.190Z,36.35
2018-06-08T10:05:09.125Z,36.51
2018-06-08T10:06:08.655Z,36.92
2018-06-08T10:07:08.675Z,37.29
2018-06-08T10:08:08.699Z,37.33
2018-06-08T10:09:08.450Z,37.35
2018-06-08T10:10:09.170Z,37.55
2018-06-08T10:11:09.120Z,37.82
2018-06-08T10:12:08.871Z,37.75
2018-06-08T10:13:08.609Z,37.53
2018-06-08T10:14:08.309Z,37.26
2018-06-08T10:15:09.209Z,36.99
2018-06-08T10:16:32.078Z,36.46
2018-06-08T10:17:31.887Z,36.18
2018-06-08T10:18:31.798Z,36.14
2018-06-08T10:19:31.977Z,35.90
2018-06-08T10:20:31.794Z,35.67
2018-06-08T10:21:31.485Z,35.56
2018-06-08T10:22:32.130Z,35.37
2018-06-08T10:23:32.128Z,35.33
2018-06-08T10:24:31.880Z,35.27
2018-06-08T10:25:31.564Z,35.39
2018-06-08T10:26:33.078Z,35.34
2018-06-08T10:27:32.749Z,35.51
2018-06-08T10:28:53.770Z,35.48
2018-06-08T10:29:53.686Z,35.41
2018-06-08T10:30:54.681Z,35.22
2018-06-08T10:31:53.536Z,35.14
2018-06-08T10:32:54.881Z,34.95
2018-06-08T10:33:54.143Z,34.83
2018-06-08T10:35:38.980Z,34.58
2018-06-08T10:36:39.418Z,34.36
2018-06-08T10:37:39.402Z,34.29
2018-06-08T10:38:39.378Z,34.25
2018-06-08T10:39:39.134Z,34.21
2018-06-08T10:40:39.066Z,34.17
2018-06-08T10:42:01.061Z,34.25
2018-06-08T10:43:01.914Z,34.36
2018-06-08T10:44:01.801Z,34.30
2018-06-08T10:45:01.792Z,34.08
2018-06-08T10:46:23.074Z,33.84
2018-06-08T10:47:24.300Z,33.81
2018-06-08T10:48:24.512Z,33.83
2018-06-08T10:49:24.190Z,33.87
2018-06-08T10:50:24.426Z,33.87
2018-06-08T10:51:51.574Z,33.98
2018-06-08T10:52:47.623Z,33.95
2018-06-08T10:53:47.258Z,33.79
2018-06-08T10:54:47.275Z,33.90
2018-06-08T10:55:47.087Z,34.02
2018-06-08T10:56:46.835Z,33.95
2018-06-08T10:58:08.026Z,34.03
2018-06-08T10:59:08.520Z,34.18
2018-06-08T11:00:08.303Z,34.10
2018-06-08T11:01:09.957Z,34.08
2018-06-08T11:02:08.707Z,34.11
2018-06-08T11:03:08.567Z,34.16
2018-06-08T11:04:08.323Z,34.24
2018-06-08T11:05:08.930Z,34.42
2018-06-08T11:06:08.817Z,34.54
2018-06-08T11:07:52.265Z,34.39
2018-06-08T11:08:53.263Z,34.29
2018-06-08T11:10:35.379Z,34.11
2018-06-08T11:11:36.120Z,34.11
2018-06-08T11:12:36.005Z,34.08
2018-06-08T11:13:35.730Z,34.01
2018-06-08T11:14:35.514Z,33.99
2018-06-08T11:15:36.618Z,33.86
2018-06-08T11:16:35.381Z,33.96
2018-06-08T11:17:35.046Z,34.01
2018-06-08T11:18:35.654Z,34.14
2018-06-08T11:19:35.438Z,34.27
2018-06-08T11:20:36.053Z,34.30
2018-06-08T11:21:35.934Z,34.25
2018-06-08T11:22:36.016Z,34.25
2018-06-08T11:23:35.882Z,34.16
2018-06-08T11:24:35.773Z,33.99
2018-06-08T11:25:35.337Z,33.80
2018-06-08T11:26:36.233Z,33.64
2018-06-08T11:27:36.324Z,33.49
2018-06-08T11:28:36.254Z,33.17
2018-06-08T11:29:36.226Z,32.93
2018-06-08T11:30:57.942Z,32.64
2018-06-08T11:32:21.569Z,32.38
2018-06-08T11:33:21.208Z,32.21
2018-06-08T11:34:21.311Z,32.11
2018-06-08T11:35:21.037Z,32.18
2018-06-08T11:37:04.776Z,32.43
2018-06-08T11:38:04.681Z,32.65
2018-06-08T11:39:27.248Z,32.78
2018-06-08T11:40:27.937Z,32.97
2018-06-08T11:41:27.906Z,33.14
2018-06-08T11:42:28.462Z,33.32
2018-06-08T11:43:27.370Z,33.52
2018-06-08T11:44:27.421Z,33.53
2018-06-08T11:45:27.548Z,33.27
2018-06-08T11:46:27.542Z,33.01
2018-06-08T11:47:27.139Z,33.30
2018-06-08T11:48:28.504Z,33.55
2018-06-08T11:49:28.034Z,33.71
2018-06-08T11:50:27.989Z,33.92
2018-06-08T11:51:27.872Z,34.33
2018-06-08T11:52:27.787Z,34.86
2018-06-08T11:53:27.586Z,35.27
2018-06-08T11:54:27.254Z,35.42
2018-06-08T11:55:28.384Z,35.79
2018-06-08T11:56:27.223Z,36.35
2018-06-08T11:57:28.230Z,36.88
2018-06-08T11:58:28.322Z,37.18
2018-06-08T11:59:28.336Z,37.59
2018-06-08T12:00:28.715Z,37.47
2018-06-08T12:01:27.652Z,37.64
2018-06-08T12:02:28.879Z,37.60
2018-06-08T12:03:27.917Z,37.36
2018-06-08T12:04:28.109Z,37.48
2018-06-08T12:05:28.955Z,37.59
2018-06-08T12:06:28.491Z,37.08
2018-06-08T12:07:53.307Z,36.81
2018-06-08T12:08:53.783Z,36.88
2018-06-08T12:10:06.795Z,36.67
2018-06-08T12:10:59.164Z,36.30
2018-06-08T12:12:05.072Z,35.88
2018-06-08T12:12:54.811Z,35.11
2018-06-08T12:13:57.316Z,34.83
2018-06-08T12:14:54.357Z,34.47
2018-06-08T12:15:53.644Z,34.23
2018-06-08T12:16:54.173Z,34.08
2018-06-08T12:17:55.810Z,33.94
2018-06-08T12:18:55.080Z,33.89
2018-06-08T12:19:55.059Z,33.11
2018-06-08T12:20:55.510Z,32.65
2018-06-08T12:21:53.953Z,32.45
2018-06-08T12:22:54.868Z,31.93
2018-06-08T12:24:00.403Z,31.54
2018-06-08T12:25:24.407Z,31.12
2018-06-08T12:26:22.151Z,30.94
2018-06-08T12:27:20.316Z,30.85
2018-06-08T12:28:30.918Z,30.80
2018-06-08T12:29:24.625Z,30.68
2018-06-08T12:30:23.255Z,30.30
2018-06-08T12:31:20.283Z,30.02
2018-06-08T12:32:19.202Z,29.81
2018-06-08T12:33:20.249Z,29.54
2018-06-08T12:34:31.820Z,29.44
2018-06-08T12:35:23.759Z,29.27
2018-06-08T12:36:25.548Z,28.97
2018-06-08T12:37:20.833Z,28.76
2018-06-08T12:38:20.426Z,28.63
2018-06-08T12:39:19.384Z,28.49
2018-06-08T12:40:20.278Z,28.30
2018-06-08T12:41:19.261Z,28.14
2018-06-08T12:42:19.795Z,27.87
2018-06-08T12:43:20.267Z,27.68
2018-06-08T12:44:19.522Z,27.49
2018-06-08T12:45:45.923Z,27.26
2018-06-08T12:46:43.032Z,27.07
2018-06-08T12:47:41.902Z,26.90
2018-06-08T12:48:42.790Z,26.56
2018-06-08T12:49:42.636Z,26.29
2018-06-08T12:51:08.714Z,25.99
2018-06-08T12:52:08.082Z,25.69
2018-06-08T12:53:31.868Z,25.47
2018-06-08T12:54:37.389Z,25.41
2018-06-08T12:55:34.931Z,25.28
2018-06-08T12:56:34.831Z,25.03
2018-06-08T12:57:58.861Z,24.61
2018-06-08T12:59:00.305Z,24.38
2018-06-08T12:59:57.336Z,24.13
2018-06-08T13:00:56.847Z,23.98
2018-06-08T13:01:58.444Z,23.76
2018-06-08T13:02:57.664Z,23.59
2018-06-08T13:03:57.521Z,23.39
2018-06-08T13:05:01.237Z,23.20
2018-06-08T13:05:57.418Z,23.00
2018-06-08T13:06:57.453Z,22.85
2018-06-08T13:07:56.359Z,22.75
2018-06-08T13:09:02.515Z,22.63
2018-06-08T13:09:58.569Z,22.48
2018-06-08T13:10:58.096Z,22.33
2018-06-08T13:12:03.496Z,22.18
2018-06-08T13:13:01.157Z,22.00
2018-06-08T13:14:24.953Z,21.76
2018-06-08T13:15:24.693Z,21.62
2018-06-08T13:16:24.888Z,21.48
2018-06-08T13:17:23.749Z,21.36
2018-06-08T13:18:24.457Z,21.24
2018-06-08T13:19:34.826Z,21.20
2018-06-08T13:20:33.989Z,21.12
2018-06-08T13:21:28.626Z,21.06
2018-06-08T13:22:26.288Z,20.95
2018-06-08T13:23:27.686Z,20.87
2018-06-08T13:24:29.693Z,20.81
2018-06-08T13:25:31.845Z,20.80
2018-06-08T13:26:33.535Z,20.75
2018-06-08T13:27:32.439Z,20.67
2018-06-08T13:28:26.197Z,20.60
2018-06-08T13:29:47.122Z,20.59
2018-06-08T13:30:56.637Z,20.51
2018-06-08T13:31:47.040Z,20.48
2018-06-08T13:32:46.302Z,20.50
2018-06-08T13:33:46.072Z,20.48
2018-06-08T13:34:46.691Z,20.44
2018-06-08T13:36:08.845Z,20.39
2018-06-08T13:37:30.338Z,20.40
2018-06-08T13:38:30.330Z,20.39
2018-06-08T13:39:52.048Z,20.26
2018-06-08T13:40:52.688Z,20.21